sensor_id;sensor_type;location;lat;lon;timestamp;P1;durP1;ratioP1;P2;durP2;ratioP2
62574;SDS011;53112;45.602;11.904;2022-11-21T00:00:46;21.30;;;13.57;;
62574;SDS011;53112;45.602;11.904;2022-11-21T00:03:13;21.90;;;13.70;;
62574;SDS011;53112;45.602;11.904;2022-11-21T00:05:43;22.70;;;15.38;;
62574;SDS011;53112;45.602;11.904;2022-11-21T00:08:11;22.20;;;13.60;;
62574;SDS011;53112;45.602;11.904;2022-11-21T00:10:39;19.05;;;12.65;;
62574;SDS011;53112;45.602;11.904;2022-11-21T00:13:06;19.90;;;13.10;;
62574;SDS011;53112;45.602;11.904;2022-11-21T00:15:36;16.65;;;11.38;;
62574;SDS011;53112;45.602;11.904;2022-11-21T00:18:02;22.50;;;12.80;;
62574;SDS011;53112;45.602;11.904;2022-11-21T00:20:29;20.52;;;12.35;;
62574;SDS011;53112;45.602;11.904;2022-11-21T00:22:56;20.13;;;13.15;;
62574;SDS011;53112;45.602;11.904;2022-11-21T00:25:22;18.45;;;11.88;;
62574;SDS011;53112;45.602;11.904;2022-11-21T00:27:48;20.15;;;12.18;;
62574;SDS011;53112;45.602;11.904;2022-11-21T00:30:13;17.60;;;11.77;;
62574;SDS011;53112;45.602;11.904;2022-11-21T00:32:39;16.45;;;11.02;;
62574;SDS011;53112;45.602;11.904;2022-11-21T00:35:05;16.88;;;11.32;;
62574;SDS011;53112;45.602;11.904;2022-11-21T00:37:32;17.13;;;11.15;;
62574;SDS011;53112;45.602;11.904;2022-11-21T00:39:58;17.27;;;11.23;;
62574;SDS011;53112;45.602;11.904;2022-11-21T00:42:24;16.13;;;10.68;;
62574;SDS011;53112;45.602;11.904;2022-11-21T00:44:50;15.23;;;10.80;;
62574;SDS011;53112;45.602;11.904;2022-11-21T00:47:16;17.05;;;11.65;;
62574;SDS011;53112;45.602;11.904;2022-11-21T00:49:42;16.38;;;10.45;;
62574;SDS011;53112;45.602;11.904;2022-11-21T00:52:08;17.27;;;11.13;;
62574;SDS011;53112;45.602;11.904;2022-11-21T00:54:33;17.13;;;10.85;;
62574;SDS011;53112;45.602;11.904;2022-11-21T00:56:59;15.98;;;10.10;;
62574;SDS011;53112;45.602;11.904;2022-11-21T00:59:25;15.55;;;11.25;;
62574;SDS011;53112;45.602;11.904;2022-11-21T01:01:51;16.17;;;11.35;;
62574;SDS011;53112;45.602;11.904;2022-11-21T01:04:17;18.17;;;11.43;;
62574;SDS011;53112;45.602;11.904;2022-11-21T01:06:42;16.25;;;10.93;;
62574;SDS011;53112;45.602;11.904;2022-11-21T01:09:08;16.38;;;10.63;;
62574;SDS011;53112;45.602;11.904;2022-11-21T01:11:34;14.93;;;10.52;;
62574;SDS011;53112;45.602;11.904;2022-11-21T01:14:00;19.33;;;11.57;;
62574;SDS011;53112;45.602;11.904;2022-11-21T01:16:26;17.77;;;11.50;;
62574;SDS011;53112;45.602;11.904;2022-11-21T01:18:53;17.63;;;11.73;;
62574;SDS011;53112;45.602;11.904;2022-11-21T01:23:54;19.00;;;10.90;;
62574;SDS011;53112;45.602;11.904;2022-11-21T01:26:24;14.43;;;9.15;;
62574;SDS011;53112;45.602;11.904;2022-11-21T01:28:51;15.30;;;9.98;;
62574;SDS011;53112;45.602;11.904;2022-11-21T01:33:47;17.05;;;10.95;;
62574;SDS011;53112;45.602;11.904;2022-11-21T01:36:23;16.52;;;10.55;;
62574;SDS011;53112;45.602;11.904;2022-11-21T01:38:52;19.40;;;11.30;;
62574;SDS011;53112;45.602;11.904;2022-11-21T01:41:21;16.17;;;10.98;;
62574;SDS011;53112;45.602;11.904;2022-11-21T01:43:49;18.33;;;11.20;;
62574;SDS011;53112;45.602;11.904;2022-11-21T01:46:16;15.25;;;10.88;;
62574;SDS011;53112;45.602;11.904;2022-11-21T01:48:49;15.13;;;10.73;;
62574;SDS011;53112;45.602;11.904;2022-11-21T01:54:18;14.85;;;10.20;;
62574;SDS011;53112;45.602;11.904;2022-11-21T01:59:35;14.88;;;9.23;;
62574;SDS011;53112;45.602;11.904;2022-11-21T02:02:05;16.33;;;10.30;;
62574;SDS011;53112;45.602;11.904;2022-11-21T02:04:33;15.73;;;10.43;;
62574;SDS011;53112;45.602;11.904;2022-11-21T02:07:02;13.77;;;9.60;;
62574;SDS011;53112;45.602;11.904;2022-11-21T02:09:31;14.32;;;9.80;;
62574;SDS011;53112;45.602;11.904;2022-11-21T02:12:01;14.93;;;10.45;;
62574;SDS011;53112;45.602;11.904;2022-11-21T02:17:00;15.02;;;10.15;;
62574;SDS011;53112;45.602;11.904;2022-11-21T02:19:33;15.82;;;10.30;;
62574;SDS011;53112;45.602;11.904;2022-11-21T02:24:29;15.75;;;10.20;;
62574;SDS011;53112;45.602;11.904;2022-11-21T02:27:17;15.65;;;10.32;;
62574;SDS011;53112;45.602;11.904;2022-11-21T02:29:43;20.83;;;12.45;;
62574;SDS011;53112;45.602;11.904;2022-11-21T02:32:18;15.05;;;11.15;;
62574;SDS011;53112;45.602;11.904;2022-11-21T02:34:49;15.63;;;10.75;;
62574;SDS011;53112;45.602;11.904;2022-11-21T02:37:15;15.25;;;11.05;;
62574;SDS011;53112;45.602;11.904;2022-11-21T02:39:42;15.57;;;10.68;;
62574;SDS011;53112;45.602;11.904;2022-11-21T02:42:19;15.80;;;10.93;;
62574;SDS011;53112;45.602;11.904;2022-11-21T02:44:56;13.63;;;10.25;;
62574;SDS011;53112;45.602;11.904;2022-11-21T02:47:25;14.23;;;9.88;;
62574;SDS011;53112;45.602;11.904;2022-11-21T02:49:54;15.32;;;10.45;;
62574;SDS011;53112;45.602;11.904;2022-11-21T02:52:24;17.98;;;10.55;;
62574;SDS011;53112;45.602;11.904;2022-11-21T02:54:50;16.02;;;10.95;;
62574;SDS011;53112;45.602;11.904;2022-11-21T02:57:16;16.60;;;10.38;;
62574;SDS011;53112;45.602;11.904;2022-11-21T02:59:41;16.40;;;11.15;;
62574;SDS011;53112;45.602;11.904;2022-11-21T03:02:07;18.60;;;11.13;;
62574;SDS011;53112;45.602;11.904;2022-11-21T03:04:33;15.55;;;10.55;;
62574;SDS011;53112;45.602;11.904;2022-11-21T03:06:59;15.95;;;10.18;;
62574;SDS011;53112;45.602;11.904;2022-11-21T03:09:25;13.13;;;8.90;;
62574;SDS011;53112;45.602;11.904;2022-11-21T03:11:51;14.75;;;9.52;;
62574;SDS011;53112;45.602;11.904;2022-11-21T03:14:17;14.45;;;10.15;;
62574;SDS011;53112;45.602;11.904;2022-11-21T03:16:43;15.43;;;10.48;;
62574;SDS011;53112;45.602;11.904;2022-11-21T03:19:09;13.70;;;9.48;;
62574;SDS011;53112;45.602;11.904;2022-11-21T03:21:35;14.30;;;9.68;;
62574;SDS011;53112;45.602;11.904;2022-11-21T03:24:00;15.40;;;9.15;;
62574;SDS011;53112;45.602;11.904;2022-11-21T03:26:26;14.18;;;9.30;;
62574;SDS011;53112;45.602;11.904;2022-11-21T03:28:52;13.52;;;8.63;;
62574;SDS011;53112;45.602;11.904;2022-11-21T03:31:18;15.05;;;9.45;;
62574;SDS011;53112;45.602;11.904;2022-11-21T03:33:44;13.65;;;9.32;;
62574;SDS011;53112;45.602;11.904;2022-11-21T03:36:10;12.57;;;9.23;;
62574;SDS011;53112;45.602;11.904;2022-11-21T03:38:36;13.60;;;9.45;;
62574;SDS011;53112;45.602;11.904;2022-11-21T03:41:02;14.73;;;9.57;;
62574;SDS011;53112;45.602;11.904;2022-11-21T03:43:30;15.52;;;10.00;;
62574;SDS011;53112;45.602;11.904;2022-11-21T03:45:56;15.63;;;9.30;;
62574;SDS011;53112;45.602;11.904;2022-11-21T03:48:22;16.45;;;9.80;;
62574;SDS011;53112;45.602;11.904;2022-11-21T03:50:48;17.33;;;9.65;;
62574;SDS011;53112;45.602;11.904;2022-11-21T03:53:14;13.63;;;9.10;;
62574;SDS011;53112;45.602;11.904;2022-11-21T03:55:41;13.95;;;9.30;;
62574;SDS011;53112;45.602;11.904;2022-11-21T03:58:07;14.57;;;9.23;;
62574;SDS011;53112;45.602;11.904;2022-11-21T04:00:33;14.52;;;9.55;;
62574;SDS011;53112;45.602;11.904;2022-11-21T04:02:58;14.93;;;9.77;;
62574;SDS011;53112;45.602;11.904;2022-11-21T04:05:25;14.60;;;9.32;;
62574;SDS011;53112;45.602;11.904;2022-11-21T04:07:51;12.50;;;9.30;;
62574;SDS011;53112;45.602;11.904;2022-11-21T04:10:18;13.70;;;8.82;;
62574;SDS011;53112;45.602;11.904;2022-11-21T04:12:45;13.98;;;9.05;;
62574;SDS011;53112;45.602;11.904;2022-11-21T04:15:11;12.85;;;8.20;;
62574;SDS011;53112;45.602;11.904;2022-11-21T04:17:37;13.38;;;8.80;;
62574;SDS011;53112;45.602;11.904;2022-11-21T04:20:03;14.35;;;9.05;;
62574;SDS011;53112;45.602;11.904;2022-11-21T04:22:29;12.98;;;8.88;;
62574;SDS011;53112;45.602;11.904;2022-11-21T04:24:55;14.75;;;9.68;;
62574;SDS011;53112;45.602;11.904;2022-11-21T04:27:21;13.55;;;8.93;;
62574;SDS011;53112;45.602;11.904;2022-11-21T04:29:47;12.20;;;8.00;;
62574;SDS011;53112;45.602;11.904;2022-11-21T04:32:13;14.40;;;9.07;;
62574;SDS011;53112;45.602;11.904;2022-11-21T04:34:39;16.02;;;10.52;;
62574;SDS011;53112;45.602;11.904;2022-11-21T04:37:06;11.95;;;8.77;;
62574;SDS011;53112;45.602;11.904;2022-11-21T04:39:32;14.32;;;10.25;;
62574;SDS011;53112;45.602;11.904;2022-11-21T04:41:58;14.02;;;9.30;;
62574;SDS011;53112;45.602;11.904;2022-11-21T04:44:24;14.73;;;10.07;;
62574;SDS011;53112;45.602;11.904;2022-11-21T04:46:49;15.50;;;10.13;;
62574;SDS011;53112;45.602;11.904;2022-11-21T04:49:17;17.60;;;11.13;;
62574;SDS011;53112;45.602;11.904;2022-11-21T04:51:43;16.95;;;10.35;;
62574;SDS011;53112;45.602;11.904;2022-11-21T04:54:09;17.27;;;11.07;;
62574;SDS011;53112;45.602;11.904;2022-11-21T04:56:36;15.77;;;10.43;;
62574;SDS011;53112;45.602;11.904;2022-11-21T04:59:02;15.13;;;10.43;;
62574;SDS011;53112;45.602;11.904;2022-11-21T05:01:28;17.50;;;10.25;;
62574;SDS011;53112;45.602;11.904;2022-11-21T05:03:54;14.15;;;9.80;;
62574;SDS011;53112;45.602;11.904;2022-11-21T05:06:20;14.40;;;9.82;;
62574;SDS011;53112;45.602;11.904;2022-11-21T05:08:46;17.20;;;10.98;;
62574;SDS011;53112;45.602;11.904;2022-11-21T05:11:12;14.95;;;9.77;;
62574;SDS011;53112;45.602;11.904;2022-11-21T05:13:56;16.05;;;9.88;;
62574;SDS011;53112;45.602;11.904;2022-11-21T05:16:22;16.52;;;10.50;;
62574;SDS011;53112;45.602;11.904;2022-11-21T05:18:48;16.17;;;10.27;;
62574;SDS011;53112;45.602;11.904;2022-11-21T05:21:14;13.43;;;8.98;;
62574;SDS011;53112;45.602;11.904;2022-11-21T05:23:40;14.82;;;10.18;;
62574;SDS011;53112;45.602;11.904;2022-11-21T05:26:06;18.73;;;11.15;;
62574;SDS011;53112;45.602;11.904;2022-11-21T05:28:31;17.90;;;12.13;;
62574;SDS011;53112;45.602;11.904;2022-11-21T05:30:57;17.73;;;11.35;;
62574;SDS011;53112;45.602;11.904;2022-11-21T05:33:23;20.58;;;12.52;;
62574;SDS011;53112;45.602;11.904;2022-11-21T05:35:49;17.38;;;11.93;;
62574;SDS011;53112;45.602;11.904;2022-11-21T05:38:16;21.77;;;11.48;;
62574;SDS011;53112;45.602;11.904;2022-11-21T05:40:42;17.88;;;11.05;;
62574;SDS011;53112;45.602;11.904;2022-11-21T05:43:09;18.00;;;10.25;;
62574;SDS011;53112;45.602;11.904;2022-11-21T05:45:54;16.83;;;11.10;;
62574;SDS011;53112;45.602;11.904;2022-11-21T05:48:20;23.90;;;12.70;;
62574;SDS011;53112;45.602;11.904;2022-11-21T05:50:47;17.23;;;11.77;;
62574;SDS011;53112;45.602;11.904;2022-11-21T05:53:16;19.95;;;12.60;;
62574;SDS011;53112;45.602;11.904;2022-11-21T05:55:43;17.30;;;11.52;;
62574;SDS011;53112;45.602;11.904;2022-11-21T05:58:09;18.45;;;11.55;;
62574;SDS011;53112;45.602;11.904;2022-11-21T06:00:35;19.23;;;10.98;;
62574;SDS011;53112;45.602;11.904;2022-11-21T06:03:02;17.67;;;11.18;;
62574;SDS011;53112;45.602;11.904;2022-11-21T06:05:48;18.63;;;10.85;;
62574;SDS011;53112;45.602;11.904;2022-11-21T06:08:14;17.00;;;10.90;;
62574;SDS011;53112;45.602;11.904;2022-11-21T06:10:40;15.23;;;9.60;;
62574;SDS011;53112;45.602;11.904;2022-11-21T06:13:06;15.95;;;10.05;;
62574;SDS011;53112;45.602;11.904;2022-11-21T06:16:19;17.58;;;10.63;;
62574;SDS011;53112;45.602;11.904;2022-11-21T06:18:42;19.45;;;12.88;;
62574;SDS011;53112;45.602;11.904;2022-11-21T06:21:16;22.30;;;13.05;;
62574;SDS011;53112;45.602;11.904;2022-11-21T06:23:43;18.40;;;12.40;;
62574;SDS011;53112;45.602;11.904;2022-11-21T06:26:11;18.88;;;11.90;;
62574;SDS011;53112;45.602;11.904;2022-11-21T06:28:40;19.92;;;12.50;;
62574;SDS011;53112;45.602;11.904;2022-11-21T06:33:37;19.23;;;11.75;;
62574;SDS011;53112;45.602;11.904;2022-11-21T06:36:05;20.55;;;13.40;;
62574;SDS011;53112;45.602;11.904;2022-11-21T06:38:33;19.80;;;13.02;;
62574;SDS011;53112;45.602;11.904;2022-11-21T06:41:03;22.48;;;13.23;;
62574;SDS011;53112;45.602;11.904;2022-11-21T06:43:30;22.35;;;13.95;;
62574;SDS011;53112;45.602;11.904;2022-11-21T06:45:56;22.60;;;13.52;;
62574;SDS011;53112;45.602;11.904;2022-11-21T06:48:23;20.08;;;12.80;;
62574;SDS011;53112;45.602;11.904;2022-11-21T06:50:49;18.67;;;12.30;;
62574;SDS011;53112;45.602;11.904;2022-11-21T06:53:15;18.45;;;12.05;;
62574;SDS011;53112;45.602;11.904;2022-11-21T06:55:41;22.15;;;12.55;;
62574;SDS011;53112;45.602;11.904;2022-11-21T06:58:07;21.77;;;12.25;;
62574;SDS011;53112;45.602;11.904;2022-11-21T07:00:33;19.08;;;11.40;;
62574;SDS011;53112;45.602;11.904;2022-11-21T07:03:02;16.10;;;11.40;;
62574;SDS011;53112;45.602;11.904;2022-11-21T07:05:28;19.25;;;11.95;;
62574;SDS011;53112;45.602;11.904;2022-11-21T07:07:58;20.17;;;12.55;;
62574;SDS011;53112;45.602;11.904;2022-11-21T07:10:26;22.13;;;12.60;;
62574;SDS011;53112;45.602;11.904;2022-11-21T07:12:55;18.42;;;11.00;;
62574;SDS011;53112;45.602;11.904;2022-11-21T07:15:43;20.13;;;13.00;;
62574;SDS011;53112;45.602;11.904;2022-11-21T07:18:10;25.10;;;15.52;;
62574;SDS011;53112;45.602;11.904;2022-11-21T07:20:37;32.80;;;19.02;;
62574;SDS011;53112;45.602;11.904;2022-11-21T07:23:05;27.70;;;16.90;;
62574;SDS011;53112;45.602;11.904;2022-11-21T07:25:31;30.42;;;19.85;;
62574;SDS011;53112;45.602;11.904;2022-11-21T07:27:58;31.40;;;20.00;;
62574;SDS011;53112;45.602;11.904;2022-11-21T07:30:26;40.83;;;24.52;;
62574;SDS011;53112;45.602;11.904;2022-11-21T07:32:58;36.50;;;22.02;;
62574;SDS011;53112;45.602;11.904;2022-11-21T07:35:26;31.45;;;19.67;;
62574;SDS011;53112;45.602;11.904;2022-11-21T07:37:52;27.48;;;17.70;;
62574;SDS011;53112;45.602;11.904;2022-11-21T07:40:18;27.80;;;18.15;;
62574;SDS011;53112;45.602;11.904;2022-11-21T07:42:45;25.73;;;16.95;;
62574;SDS011;53112;45.602;11.904;2022-11-21T07:45:11;31.65;;;17.98;;
62574;SDS011;53112;45.602;11.904;2022-11-21T07:47:38;26.52;;;17.15;;
62574;SDS011;53112;45.602;11.904;2022-11-21T07:50:04;27.58;;;17.67;;
62574;SDS011;53112;45.602;11.904;2022-11-21T07:52:32;29.50;;;17.25;;
62574;SDS011;53112;45.602;11.904;2022-11-21T07:54:58;30.98;;;17.85;;
62574;SDS011;53112;45.602;11.904;2022-11-21T07:57:26;30.02;;;17.50;;
62574;SDS011;53112;45.602;11.904;2022-11-21T07:59:53;32.10;;;18.45;;
62574;SDS011;53112;45.602;11.904;2022-11-21T08:02:20;27.30;;;17.10;;
62574;SDS011;53112;45.602;11.904;2022-11-21T08:04:50;23.00;;;15.50;;
62574;SDS011;53112;45.602;11.904;2022-11-21T08:07:18;22.17;;;14.88;;
62574;SDS011;53112;45.602;11.904;2022-11-21T08:09:46;24.08;;;15.18;;
62574;SDS011;53112;45.602;11.904;2022-11-21T08:12:12;26.25;;;15.15;;
62574;SDS011;53112;45.602;11.904;2022-11-21T08:14:39;21.88;;;13.65;;
62574;SDS011;53112;45.602;11.904;2022-11-21T08:17:05;24.30;;;14.55;;
62574;SDS011;53112;45.602;11.904;2022-11-21T08:19:32;21.83;;;13.38;;
62574;SDS011;53112;45.602;11.904;2022-11-21T08:21:58;21.52;;;12.90;;
62574;SDS011;53112;45.602;11.904;2022-11-21T08:24:24;25.38;;;14.52;;
62574;SDS011;53112;45.602;11.904;2022-11-21T08:26:51;22.77;;;14.68;;
62574;SDS011;53112;45.602;11.904;2022-11-21T08:29:17;21.52;;;13.20;;
62574;SDS011;53112;45.602;11.904;2022-11-21T08:31:43;19.58;;;12.65;;
62574;SDS011;53112;45.602;11.904;2022-11-21T08:34:10;25.42;;;13.63;;
62574;SDS011;53112;45.602;11.904;2022-11-21T08:36:36;20.05;;;12.88;;
62574;SDS011;53112;45.602;11.904;2022-11-21T08:39:02;20.50;;;11.85;;
62574;SDS011;53112;45.602;11.904;2022-11-21T08:41:28;20.52;;;12.02;;
62574;SDS011;53112;45.602;11.904;2022-11-21T08:44:13;18.02;;;10.95;;
62574;SDS011;53112;45.602;11.904;2022-11-21T08:46:39;18.60;;;12.18;;
62574;SDS011;53112;45.602;11.904;2022-11-21T08:49:05;21.17;;;12.82;;
62574;SDS011;53112;45.602;11.904;2022-11-21T08:51:32;20.88;;;13.07;;
62574;SDS011;53112;45.602;11.904;2022-11-21T08:53:58;18.55;;;12.55;;
62574;SDS011;53112;45.602;11.904;2022-11-21T08:56:24;18.00;;;12.15;;
62574;SDS011;53112;45.602;11.904;2022-11-21T08:58:51;17.98;;;11.70;;
62574;SDS011;53112;45.602;11.904;2022-11-21T09:01:17;18.08;;;12.18;;
62574;SDS011;53112;45.602;11.904;2022-11-21T09:03:43;18.98;;;12.25;;
62574;SDS011;53112;45.602;11.904;2022-11-21T09:06:09;18.45;;;12.32;;
62574;SDS011;53112;45.602;11.904;2022-11-21T09:08:36;22.63;;;13.50;;
62574;SDS011;53112;45.602;11.904;2022-11-21T09:11:03;19.98;;;13.48;;
62574;SDS011;53112;45.602;11.904;2022-11-21T09:13:30;20.33;;;12.93;;
62574;SDS011;53112;45.602;11.904;2022-11-21T09:15:57;20.30;;;13.90;;
62574;SDS011;53112;45.602;11.904;2022-11-21T09:18:42;24.60;;;14.02;;
62574;SDS011;53112;45.602;11.904;2022-11-21T09:21:13;20.90;;;14.38;;
62574;SDS011;53112;45.602;11.904;2022-11-21T09:23:42;22.00;;;14.98;;
62574;SDS011;53112;45.602;11.904;2022-11-21T09:26:08;20.20;;;14.00;;
62574;SDS011;53112;45.602;11.904;2022-11-21T09:28:34;20.80;;;13.52;;
62574;SDS011;53112;45.602;11.904;2022-11-21T09:31:01;19.10;;;12.30;;
62574;SDS011;53112;45.602;11.904;2022-11-21T09:33:28;18.20;;;13.27;;
62574;SDS011;53112;45.602;11.904;2022-11-21T09:35:56;17.85;;;12.95;;
62574;SDS011;53112;45.602;11.904;2022-11-21T09:38:24;18.10;;;13.00;;
62574;SDS011;53112;45.602;11.904;2022-11-21T09:41:06;17.73;;;13.05;;
62574;SDS011;53112;45.602;11.904;2022-11-21T09:44:14;17.35;;;12.63;;
62574;SDS011;53112;45.602;11.904;2022-11-21T09:46:53;15.55;;;11.35;;
62574;SDS011;53112;45.602;11.904;2022-11-21T09:49:32;16.30;;;10.95;;
62574;SDS011;53112;45.602;11.904;2022-11-21T09:52:05;14.30;;;9.98;;
62574;SDS011;53112;45.602;11.904;2022-11-21T09:54:34;11.80;;;8.90;;
62574;SDS011;53112;45.602;11.904;2022-11-21T09:57:11;12.25;;;8.52;;
62574;SDS011;53112;45.602;11.904;2022-11-21T09:59:42;10.93;;;7.72;;
62574;SDS011;53112;45.602;11.904;2022-11-21T10:02:13;12.48;;;8.77;;
62574;SDS011;53112;45.602;11.904;2022-11-21T10:04:42;11.40;;;8.00;;
62574;SDS011;53112;45.602;11.904;2022-11-21T10:12:39;10.77;;;7.28;;
62574;SDS011;53112;45.602;11.904;2022-11-21T10:15:32;11.88;;;7.40;;
62574;SDS011;53112;45.602;11.904;2022-11-21T10:31:57;9.25;;;6.90;;
62574;SDS011;53112;45.602;11.904;2022-11-21T10:34:33;10.00;;;6.20;;
62574;SDS011;53112;45.602;11.904;2022-11-21T10:37:06;9.40;;;6.47;;
62574;SDS011;53112;45.602;11.904;2022-11-21T10:39:54;10.43;;;7.22;;
62574;SDS011;53112;45.602;11.904;2022-11-21T10:42:40;10.10;;;7.20;;
62574;SDS011;53112;45.602;11.904;2022-11-21T10:45:17;9.93;;;6.80;;
62574;SDS011;53112;45.602;11.904;2022-11-21T10:47:44;8.50;;;6.50;;
62574;SDS011;53112;45.602;11.904;2022-11-21T10:53:01;8.55;;;6.15;;
62574;SDS011;53112;45.602;11.904;2022-11-21T10:55:55;9.43;;;6.15;;
62574;SDS011;53112;45.602;11.904;2022-11-21T10:58:35;8.90;;;5.93;;
62574;SDS011;53112;45.602;11.904;2022-11-21T11:01:05;7.97;;;5.72;;
62574;SDS011;53112;45.602;11.904;2022-11-21T11:03:42;7.65;;;5.50;;
62574;SDS011;53112;45.602;11.904;2022-11-21T11:06:09;7.32;;;5.00;;
62574;SDS011;53112;45.602;11.904;2022-11-21T11:08:48;8.20;;;5.85;;
62574;SDS011;53112;45.602;11.904;2022-11-21T11:11:16;7.67;;;5.50;;
62574;SDS011;53112;45.602;11.904;2022-11-21T11:16:21;7.05;;;4.85;;
62574;SDS011;53112;45.602;11.904;2022-11-21T11:18:56;7.35;;;4.90;;
62574;SDS011;53112;45.602;11.904;2022-11-21T11:21:28;7.63;;;5.07;;
62574;SDS011;53112;45.602;11.904;2022-11-21T11:27:17;7.50;;;5.00;;
62574;SDS011;53112;45.602;11.904;2022-11-21T11:29:28;7.55;;;5.18;;
62574;SDS011;53112;45.602;11.904;2022-11-21T11:32:29;7.63;;;5.32;;
62574;SDS011;53112;45.602;11.904;2022-11-21T11:37:18;8.35;;;5.75;;
62574;SDS011;53112;45.602;11.904;2022-11-21T11:42:57;7.57;;;5.00;;
62574;SDS011;53112;45.602;11.904;2022-11-21T11:49:02;8.48;;;5.85;;
62574;SDS011;53112;45.602;11.904;2022-11-21T11:51:40;9.15;;;5.60;;
62574;SDS011;53112;45.602;11.904;2022-11-21T11:54:18;8.50;;;5.40;;
62574;SDS011;53112;45.602;11.904;2022-11-21T11:56:52;8.07;;;5.75;;
62574;SDS011;53112;45.602;11.904;2022-11-21T11:59:30;8.05;;;5.85;;
62574;SDS011;53112;45.602;11.904;2022-11-21T12:04:56;8.43;;;5.95;;
62574;SDS011;53112;45.602;11.904;2022-11-21T12:07:37;9.13;;;6.38;;
62574;SDS011;53112;45.602;11.904;2022-11-21T12:13:08;10.13;;;6.63;;
62574;SDS011;53112;45.602;11.904;2022-11-21T12:15:39;10.27;;;7.45;;
62574;SDS011;53112;45.602;11.904;2022-11-21T12:20:47;10.75;;;6.75;;
62574;SDS011;53112;45.602;11.904;2022-11-21T12:23:29;8.90;;;6.30;;
62574;SDS011;53112;45.602;11.904;2022-11-21T12:37:52;8.17;;;5.63;;
62574;SDS011;53112;45.602;11.904;2022-11-21T12:46:06;11.55;;;7.95;;
62574;SDS011;53112;45.602;11.904;2022-11-21T12:48:43;13.35;;;8.63;;
62574;SDS011;53112;45.602;11.904;2022-11-21T12:57:20;11.25;;;7.53;;
62574;SDS011;53112;45.602;11.904;2022-11-21T12:59:57;13.07;;;7.78;;
62574;SDS011;53112;45.602;11.904;2022-11-21T13:05:04;11.32;;;7.22;;
62574;SDS011;53112;45.602;11.904;2022-11-21T13:07:36;11.63;;;7.95;;
62574;SDS011;53112;45.602;11.904;2022-11-21T13:10:04;11.40;;;7.65;;
62574;SDS011;53112;45.602;11.904;2022-11-21T13:15:13;13.23;;;8.82;;
62574;SDS011;53112;45.602;11.904;2022-11-21T13:18:39;14.23;;;9.48;;
62574;SDS011;53112;45.602;11.904;2022-11-21T13:20:48;12.60;;;8.18;;
62574;SDS011;53112;45.602;11.904;2022-11-21T13:23:35;11.90;;;7.80;;
62574;SDS011;53112;45.602;11.904;2022-11-21T13:28:50;10.80;;;7.30;;
62574;SDS011;53112;45.602;11.904;2022-11-21T13:31:37;13.23;;;8.15;;
62574;SDS011;53112;45.602;11.904;2022-11-21T13:34:31;13.25;;;8.10;;
62574;SDS011;53112;45.602;11.904;2022-11-21T13:37:00;13.25;;;8.45;;
62574;SDS011;53112;45.602;11.904;2022-11-21T13:39:27;12.73;;;8.63;;
62574;SDS011;53112;45.602;11.904;2022-11-21T13:44:51;17.05;;;10.55;;
62574;SDS011;53112;45.602;11.904;2022-11-21T13:49:58;15.48;;;10.13;;
62574;SDS011;53112;45.602;11.904;2022-11-21T13:52:48;17.33;;;10.70;;
62574;SDS011;53112;45.602;11.904;2022-11-21T14:06:44;18.90;;;10.68;;
62574;SDS011;53112;45.602;11.904;2022-11-21T14:09:18;16.55;;;10.32;;
62574;SDS011;53112;45.602;11.904;2022-11-21T14:12:20;18.70;;;11.35;;
62574;SDS011;53112;45.602;11.904;2022-11-21T14:19:55;23.08;;;13.27;;
62574;SDS011;53112;45.602;11.904;2022-11-21T14:22:28;19.42;;;12.73;;
62574;SDS011;53112;45.602;11.904;2022-11-21T14:24:59;22.02;;;14.02;;
62574;SDS011;53112;45.602;11.904;2022-11-21T14:27:30;19.77;;;12.63;;
62574;SDS011;53112;45.602;11.904;2022-11-21T14:32:28;21.50;;;13.13;;
62574;SDS011;53112;45.602;11.904;2022-11-21T14:35:07;24.15;;;14.13;;
62574;SDS011;53112;45.602;11.904;2022-11-21T14:37:38;23.48;;;13.70;;
62574;SDS011;53112;45.602;11.904;2022-11-21T14:40:08;21.67;;;13.15;;
62574;SDS011;53112;45.602;11.904;2022-11-21T14:42:43;21.58;;;13.65;;
62574;SDS011;53112;45.602;11.904;2022-11-21T14:45:20;22.42;;;12.88;;
62574;SDS011;53112;45.602;11.904;2022-11-21T14:47:48;19.92;;;12.30;;
62574;SDS011;53112;45.602;11.904;2022-11-21T14:52:48;18.92;;;11.82;;
62574;SDS011;53112;45.602;11.904;2022-11-21T14:55:30;21.13;;;11.68;;
62574;SDS011;53112;45.602;11.904;2022-11-21T14:58:01;21.25;;;11.75;;
62574;SDS011;53112;45.602;11.904;2022-11-21T15:00:30;21.08;;;12.30;;
62574;SDS011;53112;45.602;11.904;2022-11-21T15:02:56;18.05;;;10.57;;
62574;SDS011;53112;45.602;11.904;2022-11-21T15:05:33;20.88;;;11.95;;
62574;SDS011;53112;45.602;11.904;2022-11-21T15:07:59;21.85;;;12.15;;
62574;SDS011;53112;45.602;11.904;2022-11-21T15:10:31;22.15;;;13.02;;
62574;SDS011;53112;45.602;11.904;2022-11-21T15:13:10;23.92;;;14.02;;
62574;SDS011;53112;45.602;11.904;2022-11-21T15:15:43;25.05;;;14.45;;
62574;SDS011;53112;45.602;11.904;2022-11-21T15:18:14;22.60;;;13.23;;
62574;SDS011;53112;45.602;11.904;2022-11-21T15:20:52;22.58;;;13.65;;
62574;SDS011;53112;45.602;11.904;2022-11-21T15:23:35;23.85;;;13.52;;
62574;SDS011;53112;45.602;11.904;2022-11-21T15:26:04;20.75;;;12.63;;
62574;SDS011;53112;45.602;11.904;2022-11-21T15:28:31;30.40;;;16.58;;
62574;SDS011;53112;45.602;11.904;2022-11-21T15:36:30;26.05;;;14.35;;
62574;SDS011;53112;45.602;11.904;2022-11-21T15:41:28;22.52;;;13.50;;
62574;SDS011;53112;45.602;11.904;2022-11-21T15:46:30;24.25;;;14.27;;
62574;SDS011;53112;45.602;11.904;2022-11-21T15:48:58;26.73;;;15.40;;
62574;SDS011;53112;45.602;11.904;2022-11-21T15:51:32;25.42;;;15.77;;
62574;SDS011;53112;45.602;11.904;2022-11-21T15:54:18;34.65;;;19.33;;
62574;SDS011;53112;45.602;11.904;2022-11-21T15:56:45;44.50;;;20.80;;
62574;SDS011;53112;45.602;11.904;2022-11-21T15:59:11;31.98;;;18.05;;
62574;SDS011;53112;45.602;11.904;2022-11-21T16:01:39;34.63;;;18.58;;
62574;SDS011;53112;45.602;11.904;2022-11-21T16:04:09;31.00;;;17.40;;
62574;SDS011;53112;45.602;11.904;2022-11-21T16:06:36;34.35;;;20.13;;
62574;SDS011;53112;45.602;11.904;2022-11-21T16:09:02;30.38;;;17.90;;
62574;SDS011;53112;45.602;11.904;2022-11-21T16:11:33;33.50;;;19.35;;
62574;SDS011;53112;45.602;11.904;2022-11-21T16:14:07;30.88;;;17.13;;
62574;SDS011;53112;45.602;11.904;2022-11-21T16:16:38;28.38;;;16.95;;
62574;SDS011;53112;45.602;11.904;2022-11-21T16:19:06;29.25;;;16.67;;
62574;SDS011;53112;45.602;11.904;2022-11-21T16:21:34;29.88;;;16.48;;
62574;SDS011;53112;45.602;11.904;2022-11-21T16:24:00;36.80;;;20.15;;
62574;SDS011;53112;45.602;11.904;2022-11-21T16:26:27;32.42;;;18.17;;
62574;SDS011;53112;45.602;11.904;2022-11-21T16:28:56;34.55;;;18.63;;
62574;SDS011;53112;45.602;11.904;2022-11-21T16:31:24;26.23;;;15.00;;
62574;SDS011;53112;45.602;11.904;2022-11-21T16:33:51;25.40;;;14.98;;
62574;SDS011;53112;45.602;11.904;2022-11-21T16:36:18;25.63;;;15.20;;
62574;SDS011;53112;45.602;11.904;2022-11-21T16:38:47;25.38;;;14.68;;
62574;SDS011;53112;45.602;11.904;2022-11-21T16:41:15;32.58;;;18.65;;